createdAt,value
2019-04-20T00:02:06.144Z,24.47
2019-04-20T00:04:31.005Z,20.68
2019-04-20T00:06:56.494Z,24.12
2019-04-20T00:09:29.863Z,19.20
2019-04-20T00:12:05.229Z,21.93
2019-04-20T00:14:28.736Z,23.00
2019-04-20T00:16:52.810Z,18.40
2019-04-20T00:19:26.215Z,17.35
2019-04-20T00:21:58.541Z,20.40
2019-04-20T00:24:27.616Z,24.05
2019-04-20T00:27:34.975Z,15.43
2019-04-20T00:29:39.339Z,16.65
2019-04-20T00:32:03.976Z,17.75
2019-04-20T00:34:28.302Z,16.23
2019-04-20T00:36:51.956Z,21.17
2019-04-20T00:39:20.623Z,20.90
2019-04-20T00:41:55.012Z,14.85
2019-04-20T00:44:24.259Z,20.10
2019-04-20T00:47:05.889Z,17.32
2019-04-20T00:49:32.207Z,21.62
2019-04-20T00:52:15.209Z,20.80
2019-04-20T00:54:15.856Z,21.00
2019-04-20T00:56:43.725Z,21.00
2019-04-20T00:59:24.102Z,21.93
2019-04-20T01:02:00.595Z,19.95
2019-04-20T01:04:27.213Z,21.27
2019-04-20T01:06:58.969Z,20.05
2019-04-20T01:09:28.835Z,16.60
2019-04-20T01:11:56.596Z,24.47
2019-04-20T01:14:36.100Z,22.22
2019-04-20T01:17:02.159Z,21.33
2019-04-20T01:19:23.464Z,25.80
2019-04-20T01:21:57.063Z,25.97
2019-04-20T01:24:27.473Z,23.77
2019-04-20T01:26:54.686Z,24.23
2019-04-20T01:29:29.234Z,26.60
2019-04-20T01:32:02.321Z,26.87
2019-04-20T01:34:32.150Z,24.55
2019-04-20T01:37:00.967Z,20.00
2019-04-20T01:39:25.264Z,20.90
2019-04-20T01:41:45.424Z,20.85
2019-04-20T01:44:13.480Z,22.55
2019-04-20T01:46:48.766Z,21.62
2019-04-20T01:49:16.784Z,18.82
2019-04-20T01:51:53.644Z,18.67
2019-04-20T01:54:29.807Z,18.42
2019-04-20T01:56:52.032Z,18.52
2019-04-20T01:59:31.514Z,20.55
2019-04-20T02:02:08.048Z,19.87
2019-04-20T02:04:41.995Z,16.05
2019-04-20T02:07:08.269Z,18.62
2019-04-20T02:09:43.287Z,16.30
2019-04-20T02:12:11.131Z,13.00
2019-04-20T02:14:41.217Z,18.27
2019-04-20T02:17:12.911Z,14.03
2019-04-20T02:19:52.639Z,16.87
2019-04-20T02:22:13.305Z,17.30
2019-04-20T02:24:31.927Z,16.55
2019-04-20T02:26:59.907Z,17.92
2019-04-20T02:29:50.656Z,14.68
2019-04-20T02:32:36.513Z,15.75
2019-04-20T02:35:18.456Z,16.37
2019-04-20T02:40:32.857Z,18.65
2019-04-20T02:42:51.043Z,21.47
2019-04-20T02:45:24.447Z,16.70
2019-04-20T02:47:57.209Z,16.25
2019-04-20T02:50:24.365Z,16.10
2019-04-20T02:53:05.243Z,19.25
2019-04-20T02:55:26.898Z,16.15
2019-04-20T03:00:20.949Z,24.57
2019-04-20T03:02:35.948Z,20.10
2019-04-20T03:05:02.629Z,23.50
2019-04-20T03:07:31.568Z,26.50
2019-04-20T03:10:08.429Z,17.77
2019-04-20T03:12:38.644Z,18.25
2019-04-20T03:14:58.415Z,15.25
2019-04-20T03:17:38.631Z,18.57
2019-04-20T03:19:59.573Z,17.15
2019-04-20T03:23:01.021Z,14.53
2019-04-20T03:25:05.061Z,26.20
2019-04-20T03:27:32.980Z,20.72
2019-04-20T03:30:22.354Z,16.00
2019-04-20T03:35:29.864Z,20.15
2019-04-20T03:37:42.639Z,17.87
2019-04-20T03:40:05.486Z,17.92
2019-04-20T03:42:18.172Z,24.60
2019-04-20T03:44:54.026Z,37.25
2019-04-20T03:47:26.856Z,22.02
2019-04-20T03:50:07.892Z,21.95
2019-04-20T03:52:42.125Z,20.27
2019-04-20T03:55:19.990Z,18.00
2019-04-20T03:58:01.149Z,21.68
2019-04-20T04:00:43.417Z,19.05
2019-04-20T04:03:31.778Z,22.02
2019-04-20T04:05:50.894Z,20.60
2019-04-20T04:08:17.621Z,22.35
2019-04-20T04:10:58.138Z,21.02
2019-04-20T04:13:09.600Z,25.30
2019-04-20T04:15:47.813Z,23.83
2019-04-20T04:18:16.928Z,27.77
2019-04-20T04:20:44.320Z,21.97
2019-04-20T04:23:22.160Z,22.37
2019-04-20T04:25:55.647Z,24.10
2019-04-20T04:28:18.562Z,21.07
2019-04-20T04:30:57.975Z,19.30
2019-04-20T04:35:47.889Z,16.52
2019-04-20T04:38:23.563Z,19.10
2019-04-20T04:41:01.898Z,19.30
2019-04-20T04:43:22.474Z,18.85
2019-04-20T04:45:31.775Z,17.17
2019-04-20T04:47:59.834Z,18.15
2019-04-20T04:50:31.108Z,22.50
2019-04-20T04:53:06.458Z,19.65
2019-04-20T04:55:39.486Z,16.42
2019-04-20T04:57:57.875Z,17.87
2019-04-20T05:00:29.131Z,18.95
2019-04-20T05:03:01.099Z,22.80
2019-04-20T05:05:45.372Z,26.45
2019-04-20T05:08:06.025Z,21.57
2019-04-20T05:10:24.632Z,20.15
2019-04-20T05:12:53.230Z,27.37
2019-04-20T05:15:34.838Z,21.05
2019-04-20T05:18:16.323Z,16.00
2019-04-20T05:20:47.049Z,19.25
2019-04-20T05:23:11.479Z,30.50
2019-04-20T05:26:01.954Z,28.38
2019-04-20T05:28:24.211Z,16.82
2019-04-20T05:30:46.755Z,26.37
2019-04-20T05:33:23.621Z,34.03
2019-04-20T05:36:01.897Z,30.75
2019-04-20T05:38:37.126Z,23.95
2019-04-20T05:40:59.467Z,24.70
2019-04-20T05:43:33.022Z,18.45
2019-04-20T05:45:57.758Z,17.25
2019-04-20T05:48:33.668Z,23.02
2019-04-20T05:50:56.055Z,22.70
2019-04-20T05:53:32.629Z,23.27
2019-04-20T05:56:01.006Z,24.45
2019-04-20T05:58:32.982Z,26.85
2019-04-20T06:01:08.853Z,22.75
2019-04-20T06:03:29.024Z,23.10
2019-04-20T06:06:03.477Z,25.82
2019-04-20T06:08:41.696Z,17.42
2019-04-20T06:10:56.007Z,17.82
2019-04-20T06:13:22.970Z,19.70
2019-04-20T06:16:01.039Z,19.17
2019-04-20T06:18:28.883Z,29.72
2019-04-20T06:21:13.663Z,19.73
2019-04-20T06:26:46.096Z,20.72
2019-04-20T06:28:51.629Z,20.75
2019-04-20T06:31:34.091Z,17.00
2019-04-20T06:34:27.998Z,22.20
2019-04-20T06:36:57.188Z,18.60
2019-04-20T06:42:05.762Z,18.57
2019-04-20T06:44:14.690Z,16.10
2019-04-20T06:46:45.563Z,15.32
2019-04-20T06:49:18.330Z,14.98
2019-04-20T06:51:52.751Z,16.23
2019-04-20T06:54:16.934Z,13.98
2019-04-20T06:56:58.163Z,19.42
2019-04-20T06:59:31.811Z,13.80
2019-04-20T07:02:20.090Z,20.97
2019-04-20T07:04:38.746Z,15.98
2019-04-20T07:06:56.241Z,14.93
2019-04-20T07:09:35.003Z,14.63
2019-04-20T07:11:50.588Z,13.35
2019-04-20T07:14:06.613Z,20.35
2019-04-20T07:16:54.002Z,21.87
2019-04-20T07:19:22.647Z,12.63
2019-04-20T07:24:48.803Z,14.07
2019-04-20T07:27:14.922Z,17.48
2019-04-20T07:29:47.721Z,12.98
2019-04-20T07:32:01.859Z,15.18
2019-04-20T07:34:42.264Z,11.85
2019-04-20T07:37:43.171Z,18.85
2019-04-20T07:39:40.201Z,7.75
2019-04-20T07:42:19.202Z,6.30
2019-04-20T07:44:43.947Z,14.28
2019-04-20T07:47:14.299Z,10.60
2019-04-20T07:49:37.326Z,7.00
2019-04-20T07:51:47.245Z,7.28
2019-04-20T07:54:38.685Z,13.32
2019-04-20T07:57:03.850Z,7.35
2019-04-20T07:59:25.217Z,6.15
2019-04-20T08:02:23.753Z,10.95
2019-04-20T08:04:56.259Z,9.38
2019-04-20T08:07:09.590Z,6.35
2019-04-20T08:09:45.891Z,6.70
2019-04-20T08:12:51.763Z,8.48
2019-04-20T08:15:26.738Z,9.60
2019-04-20T08:20:09.225Z,6.87
2019-04-20T08:22:46.622Z,8.38
2019-04-20T08:25:06.715Z,4.30
2019-04-20T08:27:27.715Z,13.38
2019-04-20T08:30:09.232Z,6.12
2019-04-20T08:32:58.271Z,3.77
2019-04-20T08:35:40.760Z,8.38
2019-04-20T08:38:26.723Z,3.53
2019-04-20T08:40:34.488Z,6.22
2019-04-20T08:43:13.131Z,5.72
2019-04-20T08:45:36.725Z,3.17
2019-04-20T08:48:02.843Z,4.05
2019-04-20T08:50:29.614Z,5.47
2019-04-20T08:55:23.952Z,6.42
2019-04-20T08:57:38.236Z,6.60
2019-04-20T09:00:07.197Z,4.50
2019-04-20T09:02:35.205Z,11.20
2019-04-20T09:05:09.022Z,6.22
2019-04-20T09:07:39.070Z,11.88
2019-04-20T09:10:25.637Z,3.27
2019-04-20T09:12:48.865Z,8.88
2019-04-20T09:14:59.972Z,5.87
2019-04-20T09:17:51.332Z,5.72
2019-04-20T09:20:27.024Z,10.95
2019-04-20T09:23:08.160Z,6.47
2019-04-20T09:28:11.760Z,4.60
2019-04-20T09:30:45.496Z,8.08
2019-04-20T09:33:33.627Z,6.25
2019-04-20T09:36:05.092Z,12.63
2019-04-20T09:38:35.045Z,6.67
2019-04-20T09:41:12.181Z,13.72
2019-04-20T09:43:38.979Z,7.53
2019-04-20T09:46:08.456Z,10.30
2019-04-20T09:48:42.643Z,10.80
2019-04-20T09:51:27.075Z,7.80
2019-04-20T09:53:45.769Z,7.97
2019-04-20T09:56:19.434Z,13.18
2019-04-20T09:58:55.164Z,10.28
2019-04-20T10:01:15.613Z,10.72
2019-04-20T10:03:31.167Z,6.60
2019-04-20T10:05:59.316Z,7.08
2019-04-20T10:08:27.120Z,6.22
2019-04-20T10:10:54.739Z,8.68
2019-04-20T10:13:23.418Z,4.67
2019-04-20T10:15:50.778Z,9.53
2019-04-20T10:18:18.002Z,22.62
2019-04-20T10:20:45.398Z,19.25
2019-04-20T10:23:14.363Z,21.30
2019-04-20T10:25:42.567Z,19.27
2019-04-20T10:28:11.661Z,9.08
2019-04-20T10:30:39.141Z,8.45
2019-04-20T10:33:07.668Z,7.85
2019-04-20T10:35:35.893Z,6.67
2019-04-20T10:38:09.715Z,6.60
2019-04-20T10:40:50.302Z,10.90
2019-04-20T10:43:06.439Z,8.23
2019-04-20T10:45:34.929Z,8.45
2019-04-20T10:48:03.402Z,7.12
2019-04-20T10:50:32.298Z,8.88
2019-04-20T10:52:59.696Z,7.25
2019-04-20T10:55:27.394Z,10.68
2019-04-20T10:57:55.605Z,7.20
2019-04-20T11:00:39.790Z,10.25
2019-04-20T11:03:08.061Z,14.85
2019-04-20T11:05:35.366Z,27.42
2019-04-20T11:08:02.651Z,74.58
2019-04-20T11:10:46.085Z,48.90
2019-04-20T11:12:59.118Z,40.55
2019-04-20T11:15:26.505Z,218.65
2019-04-20T11:17:53.761Z,8.20
2019-04-20T11:20:21.436Z,9.90
2019-04-20T11:22:48.842Z,87.47
2019-04-20T11:25:16.644Z,10.95
2019-04-20T11:27:43.978Z,13.68
2019-04-20T11:30:12.069Z,10.82
2019-04-20T11:32:40.209Z,18.25
2019-04-20T11:35:15.987Z,14.78
2019-04-20T11:37:37.320Z,10.45
2019-04-20T11:40:06.453Z,4.83
2019-04-20T11:42:43.707Z,22.07
2019-04-20T11:45:10.901Z,24.32
2019-04-20T11:47:40.141Z,5.75
2019-04-20T11:50:07.395Z,13.13
2019-04-20T11:52:38.840Z,11.35
2019-04-20T11:55:08.414Z,10.68
2019-04-20T11:57:37.553Z,12.70
2019-04-20T12:00:06.944Z,10.08
2019-04-20T12:02:54.263Z,8.08
2019-04-20T12:05:34.692Z,6.58
2019-04-20T12:07:53.157Z,7.72
2019-04-20T12:10:23.737Z,7.12
2019-04-20T12:12:53.532Z,6.10
2019-04-20T12:15:18.843Z,7.53
2019-04-20T12:17:47.267Z,34.25
2019-04-20T12:20:14.666Z,43.58
2019-04-20T12:22:42.167Z,150.12
2019-04-20T12:25:10.024Z,38.35
2019-04-20T12:27:41.115Z,15.13
2019-04-20T12:30:09.916Z,12.53
2019-04-20T12:32:42.963Z,22.13
2019-04-20T12:35:06.511Z,15.05
2019-04-20T12:37:34.269Z,6.00
2019-04-20T12:40:05.005Z,17.23
2019-04-20T12:42:33.351Z,7.65
2019-04-20T12:45:01.684Z,11.10
2019-04-20T12:47:29.875Z,12.23
2019-04-20T12:49:57.303Z,9.68
2019-04-20T12:52:24.520Z,12.98
2019-04-20T12:54:52.515Z,11.35
2019-04-20T12:57:20.662Z,7.72
2019-04-20T12:59:49.568Z,4.72
2019-04-20T13:02:18.033Z,11.25
2019-04-20T13:04:45.726Z,6.62
2019-04-20T13:07:13.382Z,7.20
2019-04-20T13:09:48.596Z,7.53
2019-04-20T13:12:32.573Z,17.30
2019-04-20T13:15:11.960Z,120.00
2019-04-20T13:17:40.044Z,24.43
2019-04-20T13:20:07.895Z,18.40
2019-04-20T13:22:35.310Z,13.50
2019-04-20T13:25:03.193Z,48.78
2019-04-20T13:27:31.143Z,55.73
2019-04-20T13:29:58.630Z,12.78
2019-04-20T13:32:25.883Z,5.03
2019-04-20T13:34:54.226Z,6.33
2019-04-20T13:37:22.278Z,13.43
2019-04-20T13:39:50.875Z,12.68
2019-04-20T13:42:23.266Z,16.25
2019-04-20T13:44:48.677Z,12.82
2019-04-20T13:47:16.842Z,10.58
2019-04-20T13:49:45.187Z,4.83
2019-04-20T13:52:12.918Z,13.32
2019-04-20T13:54:40.187Z,15.70
2019-04-20T13:57:10.017Z,12.40
2019-04-20T13:59:57.997Z,4.15
2019-04-20T14:02:30.905Z,5.87
2019-04-20T14:05:00.101Z,97.57
2019-04-20T14:07:27.321Z,11.00
2019-04-20T14:09:55.347Z,12.58
2019-04-20T14:12:29.842Z,6.78
2019-04-20T14:14:53.142Z,12.60
2019-04-20T14:17:21.260Z,11.53
2019-04-20T14:19:49.415Z,11.10
2019-04-20T14:22:18.764Z,8.40
2019-04-20T14:24:46.850Z,7.87
2019-04-20T14:27:15.000Z,6.25
2019-04-20T14:29:43.214Z,6.28
2019-04-20T14:32:12.033Z,9.88
2019-04-20T14:34:40.743Z,6.08
2019-04-20T14:37:08.813Z,9.03
2019-04-20T14:39:36.376Z,6.97
2019-04-20T14:42:04.556Z,12.00
2019-04-20T14:44:32.144Z,5.65
2019-04-20T14:47:00.085Z,6.78
2019-04-20T14:49:28.505Z,8.50
2019-04-20T14:51:58.120Z,6.58
2019-04-20T14:54:25.534Z,6.08
2019-04-20T14:56:53.739Z,15.38
2019-04-20T14:59:23.292Z,10.88
2019-04-20T15:01:56.595Z,42.30
2019-04-20T15:04:26.736Z,14.28
2019-04-20T15:06:53.162Z,22.70
2019-04-20T15:09:21.054Z,18.95
2019-04-20T15:11:48.553Z,15.18
2019-04-20T15:14:16.484Z,17.45
2019-04-20T15:16:44.587Z,19.77
2019-04-20T15:19:13.821Z,20.25
2019-04-20T15:21:42.849Z,13.90
2019-04-20T15:24:11.254Z,11.60
2019-04-20T15:26:38.714Z,12.78
2019-04-20T15:29:06.359Z,24.25
2019-04-20T15:31:34.322Z,20.02
2019-04-20T15:34:03.295Z,13.62
2019-04-20T15:36:31.835Z,19.52
2019-04-20T15:38:59.245Z,19.85
2019-04-20T15:41:27.455Z,11.20
2019-04-20T15:43:55.343Z,11.38
2019-04-20T15:46:23.432Z,8.43
2019-04-20T15:48:52.351Z,7.17
2019-04-20T15:51:19.771Z,7.97
2019-04-20T15:53:47.376Z,12.43
2019-04-20T15:56:14.786Z,29.00
2019-04-20T15:58:42.084Z,28.07
2019-04-20T16:01:10.405Z,17.25
2019-04-20T16:03:48.436Z,9.60
2019-04-20T16:06:17.095Z,11.63
2019-04-20T16:08:48.230Z,22.80
2019-04-20T16:11:17.195Z,10.98
2019-04-20T16:13:48.518Z,20.57
2019-04-20T16:16:14.175Z,14.63
2019-04-20T16:18:43.217Z,9.58
2019-04-20T16:21:17.738Z,11.90
2019-04-20T16:23:48.420Z,6.80
2019-04-20T16:26:17.867Z,12.82
2019-04-20T16:28:47.818Z,30.13
2019-04-20T16:31:16.258Z,22.40
2019-04-20T16:33:44.274Z,32.93
2019-04-20T16:36:12.369Z,26.02
2019-04-20T16:38:40.507Z,34.53
2019-04-20T16:41:08.651Z,29.07
2019-04-20T16:43:41.018Z,69.60
2019-04-20T16:46:06.009Z,59.88
2019-04-20T16:48:33.804Z,63.73
2019-04-20T16:51:02.861Z,51.53
2019-04-20T16:53:30.926Z,38.55
2019-04-20T16:55:59.087Z,41.48
2019-04-20T16:58:28.266Z,37.13
2019-04-20T17:00:55.898Z,27.48
2019-04-20T17:03:31.754Z,31.30
2019-04-20T17:05:53.804Z,77.50
2019-04-20T17:08:21.155Z,192.45
2019-04-20T17:10:48.845Z,98.37
2019-04-20T17:13:29.352Z,74.70
2019-04-20T17:15:45.791Z,59.55
2019-04-20T17:18:13.692Z,36.85
2019-04-20T17:20:41.054Z,26.70
2019-04-20T17:23:10.518Z,21.05
2019-04-20T17:25:37.777Z,27.42
2019-04-20T17:28:07.245Z,54.10
2019-04-20T17:30:55.094Z,25.48
2019-04-20T17:33:26.211Z,41.92
2019-04-20T17:36:03.568Z,36.20
2019-04-20T17:38:22.689Z,53.55
2019-04-20T17:41:02.840Z,51.37
2019-04-20T17:43:26.378Z,51.20
2019-04-20T17:45:57.852Z,57.62
2019-04-20T17:48:31.572Z,59.45
2019-04-20T17:51:13.969Z,59.98
2019-04-20T17:53:41.812Z,56.98
2019-04-20T17:56:03.575Z,45.40
2019-04-20T17:58:35.919Z,41.28
2019-04-20T18:01:20.490Z,42.88
2019-04-20T18:04:11.114Z,42.08
2019-04-20T18:06:27.753Z,32.70
2019-04-20T18:08:53.787Z,42.05
2019-04-20T18:11:15.307Z,43.00
2019-04-20T18:13:40.037Z,45.48
2019-04-20T18:16:35.354Z,50.52
2019-04-20T18:19:07.792Z,66.07
2019-04-20T18:21:30.715Z,48.08
2019-04-20T18:23:58.270Z,48.87
2019-04-20T18:26:42.984Z,35.45
2019-04-20T18:29:15.031Z,44.83
2019-04-20T18:31:43.938Z,47.43
2019-04-20T18:34:16.486Z,31.60
2019-04-20T18:36:44.624Z,42.38
2019-04-20T18:39:13.685Z,37.90
2019-04-20T18:41:45.514Z,50.65
2019-04-20T18:44:10.799Z,60.43
2019-04-20T18:47:00.253Z,63.83
2019-04-20T18:49:24.362Z,69.15
2019-04-20T18:51:37.596Z,51.15
2019-04-20T18:54:08.463Z,62.45
2019-04-20T18:56:40.315Z,78.00
2019-04-20T18:59:03.126Z,70.47
2019-04-20T19:01:36.052Z,76.17
2019-04-20T19:03:59.720Z,65.67
2019-04-20T19:06:27.714Z,77.78
2019-04-20T19:08:55.974Z,80.03
2019-04-20T19:11:26.702Z,71.00
2019-04-20T19:14:15.879Z,68.78
2019-04-20T19:16:52.393Z,59.13
2019-04-20T19:19:25.725Z,81.75
2019-04-20T19:21:43.790Z,88.03
2019-04-20T19:24:15.884Z,66.87
2019-04-20T19:26:44.967Z,74.53
2019-04-20T19:29:17.449Z,65.20
2019-04-20T19:31:56.898Z,49.35
2019-04-20T19:34:26.663Z,58.55
2019-04-20T19:36:47.703Z,39.58
2019-04-20T19:39:21.361Z,47.98
2019-04-20T19:41:48.925Z,41.67
2019-04-20T19:44:17.146Z,32.17
2019-04-20T19:46:53.696Z,32.65
2019-04-20T19:49:19.195Z,24.30
2019-04-20T19:52:02.883Z,32.75
2019-04-20T19:54:29.748Z,47.10
2019-04-20T19:56:50.450Z,47.88
2019-04-20T19:59:18.600Z,52.08
2019-04-20T20:01:33.637Z,81.28
2019-04-20T20:04:05.721Z,49.00
2019-04-20T20:06:39.059Z,45.83
2019-04-20T20:09:04.163Z,59.55
2019-04-20T20:11:36.385Z,82.78
2019-04-20T20:14:03.774Z,51.18
2019-04-20T20:16:51.703Z,45.52
2019-04-20T20:19:07.682Z,58.52
2019-04-20T20:21:38.520Z,45.80
2019-04-20T20:23:56.416Z,46.85
2019-04-20T20:26:32.898Z,47.70
2019-04-20T20:29:05.770Z,61.45
2019-04-20T20:31:33.339Z,55.25
2019-04-20T20:34:03.285Z,69.47
2019-04-20T20:36:25.041Z,79.47
2019-04-20T20:38:52.512Z,84.32
2019-04-20T20:41:26.250Z,56.00
2019-04-20T20:44:00.097Z,56.53
2019-04-20T20:46:27.429Z,58.23
2019-04-20T20:49:16.134Z,44.33
2019-04-20T20:51:37.846Z,51.30
2019-04-20T20:53:57.958Z,37.45
2019-04-20T20:56:22.527Z,25.65
2019-04-20T20:58:53.863Z,15.50
2019-04-20T21:01:20.324Z,23.00
2019-04-20T21:03:44.211Z,21.35
2019-04-20T21:06:11.781Z,18.90
2019-04-20T21:08:45.903Z,17.27
2019-04-20T21:11:13.107Z,15.28
2019-04-20T21:13:42.273Z,18.48
2019-04-20T21:16:13.455Z,18.07
2019-04-20T21:18:50.216Z,12.75
2019-04-20T21:21:17.932Z,15.03
2019-04-20T21:23:45.540Z,16.02
2019-04-20T21:26:10.984Z,16.30
2019-04-20T21:28:38.038Z,12.28
2019-04-20T21:31:12.557Z,15.58
2019-04-20T21:33:36.796Z,13.43
2019-04-20T21:36:05.010Z,16.65
2019-04-20T21:38:36.994Z,13.40
2019-04-20T21:41:07.093Z,16.23
2019-04-20T21:43:36.657Z,13.75
2019-04-20T21:46:04.610Z,14.68
2019-04-20T21:48:43.938Z,18.87
2019-04-20T21:51:16.586Z,13.60
2019-04-20T21:53:31.896Z,15.00
2019-04-20T21:55:57.497Z,13.88
2019-04-20T21:58:30.255Z,14.10
2019-04-20T22:01:09.527Z,12.75
2019-04-20T22:03:27.554Z,10.82
2019-04-20T22:06:00.485Z,14.28
2019-04-20T22:08:28.423Z,16.37
2019-04-20T22:10:55.710Z,13.88
2019-04-20T22:13:26.924Z,10.30
2019-04-20T22:15:58.547Z,15.55
2019-04-20T22:18:23.904Z,16.10
2019-04-20T22:21:04.658Z,14.58
2019-04-20T22:23:36.521Z,12.55
2019-04-20T22:26:07.837Z,15.00
2019-04-20T22:28:20.347Z,11.73
2019-04-20T22:30:48.429Z,11.90
2019-04-20T22:33:25.003Z,15.28
2019-04-20T22:35:52.955Z,15.85
2019-04-20T22:38:20.587Z,13.83
2019-04-20T22:40:48.995Z,11.78
2019-04-20T22:43:24.068Z,15.50
2019-04-20T22:45:50.630Z,13.25
2019-04-20T22:48:19.233Z,12.15
2019-04-20T22:51:08.842Z,16.42
2019-04-20T22:53:28.693Z,14.55
2019-04-20T22:56:08.724Z,18.70
2019-04-20T22:58:28.960Z,15.45
2019-04-20T23:00:51.460Z,12.25
2019-04-20T23:03:12.392Z,16.27
2019-04-20T23:05:40.590Z,16.27
2019-04-20T23:08:08.629Z,16.00
2019-04-20T23:10:42.178Z,17.48
2019-04-20T23:13:07.370Z,18.67
2019-04-20T23:15:34.800Z,18.67
2019-04-20T23:18:02.257Z,17.07
2019-04-20T23:20:33.765Z,21.02
2019-04-20T23:22:58.869Z,26.15
2019-04-20T23:25:27.125Z,18.15
2019-04-20T23:28:00.533Z,20.48
2019-04-20T23:30:28.783Z,15.20
2019-04-20T23:32:53.817Z,16.85
2019-04-20T23:35:24.499Z,16.10
2019-04-20T23:37:50.786Z,15.83
2019-04-20T23:40:19.457Z,17.40
2019-04-20T23:42:57.974Z,15.28
2019-04-20T23:45:35.589Z,15.85
2019-04-20T23:48:02.696Z,15.32
2019-04-20T23:50:48.925Z,16.45
2019-04-20T23:53:15.221Z,14.58
2019-04-20T23:55:25.621Z,12.60
2019-04-20T23:58:00.996Z,13.28
